sensor_id;sensor_type;location;lat;lon;timestamp;P1;durP1;ratioP1;P2;durP2;ratioP2
16543;SDS011;8384;47.996;7.786;2022-09-25T00:01:11;10.70;;;9.53;;
16543;SDS011;8384;47.996;7.786;2022-09-25T00:03:37;10.70;;;9.70;;
16543;SDS011;8384;47.996;7.786;2022-09-25T00:06:23;9.87;;;8.87;;
16543;SDS011;8384;47.996;7.786;2022-09-25T00:08:49;10.47;;;9.60;;
16543;SDS011;8384;47.996;7.786;2022-09-25T00:11:16;10.47;;;9.57;;
16543;SDS011;8384;47.996;7.786;2022-09-25T00:13:44;10.23;;;9.27;;
16543;SDS011;8384;47.996;7.786;2022-09-25T00:16:11;9.77;;;8.93;;
16543;SDS011;8384;47.996;7.786;2022-09-25T00:18:39;10.20;;;9.23;;
16543;SDS011;8384;47.996;7.786;2022-09-25T00:21:23;10.63;;;9.73;;
16543;SDS011;8384;47.996;7.786;2022-09-25T00:23:55;9.90;;;9.00;;
16543;SDS011;8384;47.996;7.786;2022-09-25T00:26:25;11.37;;;10.27;;
16543;SDS011;8384;47.996;7.786;2022-09-25T00:28:52;10.50;;;9.60;;
16543;SDS011;8384;47.996;7.786;2022-09-25T00:31:19;11.33;;;10.33;;
16543;SDS011;8384;47.996;7.786;2022-09-25T00:33:52;11.73;;;10.73;;
16543;SDS011;8384;47.996;7.786;2022-09-25T00:36:18;11.13;;;10.23;;
16543;SDS011;8384;47.996;7.786;2022-09-25T00:38:44;10.47;;;9.53;;
16543;SDS011;8384;47.996;7.786;2022-09-25T00:41:12;10.33;;;9.33;;
16543;SDS011;8384;47.996;7.786;2022-09-25T00:43:40;10.70;;;9.67;;
16543;SDS011;8384;47.996;7.786;2022-09-25T00:51:40;8.50;;;7.70;;
16543;SDS011;8384;47.996;7.786;2022-09-25T00:54:10;9.37;;;8.57;;
16543;SDS011;8384;47.996;7.786;2022-09-25T00:56:40;9.50;;;8.67;;
16543;SDS011;8384;47.996;7.786;2022-09-25T00:59:09;10.07;;;9.17;;
16543;SDS011;8384;47.996;7.786;2022-09-25T01:01:38;12.23;;;11.03;;
16543;SDS011;8384;47.996;7.786;2022-09-25T01:04:03;13.90;;;12.50;;
16543;SDS011;8384;47.996;7.786;2022-09-25T01:06:29;11.60;;;10.40;;
16543;SDS011;8384;47.996;7.786;2022-09-25T01:08:55;11.47;;;10.40;;
16543;SDS011;8384;47.996;7.786;2022-09-25T01:11:22;10.67;;;9.67;;
16543;SDS011;8384;47.996;7.786;2022-09-25T01:13:47;11.10;;;10.10;;
16543;SDS011;8384;47.996;7.786;2022-09-25T01:16:14;10.23;;;9.23;;
16543;SDS011;8384;47.996;7.786;2022-09-25T01:18:52;11.77;;;10.77;;
16543;SDS011;8384;47.996;7.786;2022-09-25T01:21:43;11.70;;;9.50;;
16543;SDS011;8384;47.996;7.786;2022-09-25T01:27:18;11.80;;;9.07;;
16543;SDS011;8384;47.996;7.786;2022-09-25T01:32:37;6.80;;;6.20;;
16543;SDS011;8384;47.996;7.786;2022-09-25T01:35:08;5.63;;;5.23;;
16543;SDS011;8384;47.996;7.786;2022-09-25T01:40:27;5.83;;;5.23;;
16543;SDS011;8384;47.996;7.786;2022-09-25T01:43:03;5.60;;;5.10;;
16543;SDS011;8384;47.996;7.786;2022-09-25T01:45:31;5.83;;;5.33;;
16543;SDS011;8384;47.996;7.786;2022-09-25T01:48:02;4.83;;;4.43;;
16543;SDS011;8384;47.996;7.786;2022-09-25T01:50:33;4.10;;;3.80;;
16543;SDS011;8384;47.996;7.786;2022-09-25T01:53:06;5.07;;;4.57;;
16543;SDS011;8384;47.996;7.786;2022-09-25T01:55:38;5.80;;;4.60;;
16543;SDS011;8384;47.996;7.786;2022-09-25T01:58:08;6.33;;;5.73;;
16543;SDS011;8384;47.996;7.786;2022-09-25T02:00:38;7.50;;;5.83;;
16543;SDS011;8384;47.996;7.786;2022-09-25T02:03:13;6.53;;;5.73;;
16543;SDS011;8384;47.996;7.786;2022-09-25T02:05:47;6.40;;;5.80;;
16543;SDS011;8384;47.996;7.786;2022-09-25T02:08:19;7.27;;;6.47;;
16543;SDS011;8384;47.996;7.786;2022-09-25T02:10:52;6.00;;;5.33;;
16543;SDS011;8384;47.996;7.786;2022-09-25T02:13:22;6.43;;;5.83;;
16543;SDS011;8384;47.996;7.786;2022-09-25T02:15:55;6.90;;;6.40;;
16543;SDS011;8384;47.996;7.786;2022-09-25T02:18:23;6.77;;;6.17;;
16543;SDS011;8384;47.996;7.786;2022-09-25T02:26:31;12.20;;;10.93;;
16543;SDS011;8384;47.996;7.786;2022-09-25T02:28:57;12.73;;;11.43;;
16543;SDS011;8384;47.996;7.786;2022-09-25T02:31:27;14.77;;;11.93;;
16543;SDS011;8384;47.996;7.786;2022-09-25T02:33:59;16.90;;;14.07;;
16543;SDS011;8384;47.996;7.786;2022-09-25T02:36:25;20.87;;;16.40;;
16543;SDS011;8384;47.996;7.786;2022-09-25T02:38:51;20.47;;;16.30;;
16543;SDS011;8384;47.996;7.786;2022-09-25T02:41:25;20.43;;;15.87;;
16543;SDS011;8384;47.996;7.786;2022-09-25T02:49:41;20.20;;;16.63;;
16543;SDS011;8384;47.996;7.786;2022-09-25T02:52:21;24.37;;;18.37;;
16543;SDS011;8384;47.996;7.786;2022-09-25T02:55:38;27.40;;;19.67;;
16543;SDS011;8384;47.996;7.786;2022-09-25T02:58:03;30.77;;;22.40;;
16543;SDS011;8384;47.996;7.786;2022-09-25T03:00:36;25.97;;;20.47;;
16543;SDS011;8384;47.996;7.786;2022-09-25T03:03:03;24.13;;;19.07;;
16543;SDS011;8384;47.996;7.786;2022-09-25T03:05:32;21.60;;;19.03;;
16543;SDS011;8384;47.996;7.786;2022-09-25T03:07:58;24.13;;;19.50;;
16543;SDS011;8384;47.996;7.786;2022-09-25T03:10:42;25.57;;;19.90;;
16543;SDS011;8384;47.996;7.786;2022-09-25T03:15:46;26.00;;;20.07;;
16543;SDS011;8384;47.996;7.786;2022-09-25T03:18:19;26.97;;;20.33;;
16543;SDS011;8384;47.996;7.786;2022-09-25T03:20:45;26.93;;;20.17;;
16543;SDS011;8384;47.996;7.786;2022-09-25T03:23:11;26.93;;;19.27;;
16543;SDS011;8384;47.996;7.786;2022-09-25T03:25:36;24.37;;;18.63;;
16543;SDS011;8384;47.996;7.786;2022-09-25T03:28:03;23.03;;;16.07;;
16543;SDS011;8384;47.996;7.786;2022-09-25T03:30:32;23.00;;;17.40;;
16543;SDS011;8384;47.996;7.786;2022-09-25T03:32:57;18.50;;;14.80;;
16543;SDS011;8384;47.996;7.786;2022-09-25T03:35:22;18.33;;;14.43;;
16543;SDS011;8384;47.996;7.786;2022-09-25T03:37:48;17.57;;;13.90;;
16543;SDS011;8384;47.996;7.786;2022-09-25T03:40:13;17.90;;;14.50;;
16543;SDS011;8384;47.996;7.786;2022-09-25T03:42:38;20.33;;;15.83;;
16543;SDS011;8384;47.996;7.786;2022-09-25T03:45:04;20.00;;;15.60;;
16543;SDS011;8384;47.996;7.786;2022-09-25T03:47:30;19.03;;;14.33;;
16543;SDS011;8384;47.996;7.786;2022-09-25T03:49:55;23.07;;;17.23;;
16543;SDS011;8384;47.996;7.786;2022-09-25T03:52:21;19.43;;;14.90;;
16543;SDS011;8384;47.996;7.786;2022-09-25T03:54:46;33.13;;;23.23;;
16543;SDS011;8384;47.996;7.786;2022-09-25T03:57:11;22.57;;;17.00;;
16543;SDS011;8384;47.996;7.786;2022-09-25T03:59:38;21.60;;;16.80;;
16543;SDS011;8384;47.996;7.786;2022-09-25T04:02:04;29.13;;;19.20;;
16543;SDS011;8384;47.996;7.786;2022-09-25T04:04:29;25.73;;;18.33;;
16543;SDS011;8384;47.996;7.786;2022-09-25T04:06:55;27.40;;;19.57;;
16543;SDS011;8384;47.996;7.786;2022-09-25T04:09:21;28.50;;;19.37;;
16543;SDS011;8384;47.996;7.786;2022-09-25T04:11:47;34.17;;;19.57;;
16543;SDS011;8384;47.996;7.786;2022-09-25T04:14:12;30.80;;;18.50;;
16543;SDS011;8384;47.996;7.786;2022-09-25T04:16:38;32.40;;;19.10;;
16543;SDS011;8384;47.996;7.786;2022-09-25T04:19:04;25.97;;;17.27;;
16543;SDS011;8384;47.996;7.786;2022-09-25T04:21:29;26.37;;;17.33;;
16543;SDS011;8384;47.996;7.786;2022-09-25T04:23:54;30.40;;;18.13;;
16543;SDS011;8384;47.996;7.786;2022-09-25T04:26:38;23.93;;;16.60;;
16543;SDS011;8384;47.996;7.786;2022-09-25T04:29:03;23.37;;;16.50;;
16543;SDS011;8384;47.996;7.786;2022-09-25T04:31:30;20.30;;;15.70;;
16543;SDS011;8384;47.996;7.786;2022-09-25T04:33:56;21.00;;;13.90;;
16543;SDS011;8384;47.996;7.786;2022-09-25T04:36:21;22.07;;;16.80;;
16543;SDS011;8384;47.996;7.786;2022-09-25T04:38:46;23.20;;;17.33;;
16543;SDS011;8384;47.996;7.786;2022-09-25T04:41:12;18.73;;;14.70;;
16543;SDS011;8384;47.996;7.786;2022-09-25T04:43:40;20.40;;;15.00;;
16543;SDS011;8384;47.996;7.786;2022-09-25T04:46:07;16.63;;;14.07;;
16543;SDS011;8384;47.996;7.786;2022-09-25T04:48:35;17.97;;;14.13;;
16543;SDS011;8384;47.996;7.786;2022-09-25T04:51:04;18.23;;;15.00;;
16543;SDS011;8384;47.996;7.786;2022-09-25T04:53:30;17.50;;;14.07;;
16543;SDS011;8384;47.996;7.786;2022-09-25T04:55:59;16.60;;;13.30;;
16543;SDS011;8384;47.996;7.786;2022-09-25T04:58:26;17.03;;;12.93;;
16543;SDS011;8384;47.996;7.786;2022-09-25T05:00:51;16.87;;;13.63;;
16543;SDS011;8384;47.996;7.786;2022-09-25T05:03:16;18.23;;;14.13;;
16543;SDS011;8384;47.996;7.786;2022-09-25T05:05:42;18.37;;;14.60;;
16543;SDS011;8384;47.996;7.786;2022-09-25T05:08:08;20.40;;;15.37;;
16543;SDS011;8384;47.996;7.786;2022-09-25T05:10:34;19.07;;;15.67;;
16543;SDS011;8384;47.996;7.786;2022-09-25T05:13:00;20.60;;;16.23;;
16543;SDS011;8384;47.996;7.786;2022-09-25T05:15:28;25.10;;;17.53;;
16543;SDS011;8384;47.996;7.786;2022-09-25T05:17:59;25.73;;;18.53;;
16543;SDS011;8384;47.996;7.786;2022-09-25T05:20:28;28.93;;;19.47;;
16543;SDS011;8384;47.996;7.786;2022-09-25T05:22:54;32.33;;;23.03;;
16543;SDS011;8384;47.996;7.786;2022-09-25T05:25:20;40.07;;;22.73;;
16543;SDS011;8384;47.996;7.786;2022-09-25T05:27:47;54.77;;;25.77;;
16543;SDS011;8384;47.996;7.786;2022-09-25T05:30:14;43.47;;;23.47;;
16543;SDS011;8384;47.996;7.786;2022-09-25T05:32:45;51.03;;;25.90;;
16543;SDS011;8384;47.996;7.786;2022-09-25T05:35:13;58.23;;;27.17;;
16543;SDS011;8384;47.996;7.786;2022-09-25T05:37:38;50.57;;;24.57;;
16543;SDS011;8384;47.996;7.786;2022-09-25T05:40:04;59.93;;;25.93;;
16543;SDS011;8384;47.996;7.786;2022-09-25T05:42:30;47.57;;;26.07;;
16543;SDS011;8384;47.996;7.786;2022-09-25T05:44:56;49.77;;;24.23;;
16543;SDS011;8384;47.996;7.786;2022-09-25T05:47:21;54.43;;;26.93;;
16543;SDS011;8384;47.996;7.786;2022-09-25T05:49:46;47.50;;;25.57;;
16543;SDS011;8384;47.996;7.786;2022-09-25T05:52:11;49.40;;;24.33;;
16543;SDS011;8384;47.996;7.786;2022-09-25T05:54:37;42.73;;;24.70;;
16543;SDS011;8384;47.996;7.786;2022-09-25T05:57:02;45.23;;;25.03;;
16543;SDS011;8384;47.996;7.786;2022-09-25T05:59:27;48.33;;;24.53;;
16543;SDS011;8384;47.996;7.786;2022-09-25T06:01:56;49.03;;;25.83;;
16543;SDS011;8384;47.996;7.786;2022-09-25T06:04:22;45.27;;;25.27;;
16543;SDS011;8384;47.996;7.786;2022-09-25T06:06:47;43.60;;;24.63;;
16543;SDS011;8384;47.996;7.786;2022-09-25T06:09:13;42.87;;;25.07;;
16543;SDS011;8384;47.996;7.786;2022-09-25T06:11:38;42.23;;;25.33;;
16543;SDS011;8384;47.996;7.786;2022-09-25T06:14:04;44.00;;;25.70;;
16543;SDS011;8384;47.996;7.786;2022-09-25T06:16:30;48.20;;;26.97;;
16543;SDS011;8384;47.996;7.786;2022-09-25T06:18:55;45.30;;;25.80;;
16543;SDS011;8384;47.996;7.786;2022-09-25T06:21:21;48.57;;;27.10;;
16543;SDS011;8384;47.996;7.786;2022-09-25T06:23:46;45.23;;;26.93;;
16543;SDS011;8384;47.996;7.786;2022-09-25T06:26:12;47.13;;;27.20;;
16543;SDS011;8384;47.996;7.786;2022-09-25T06:28:38;45.93;;;26.90;;
16543;SDS011;8384;47.996;7.786;2022-09-25T06:31:04;49.87;;;27.43;;
16543;SDS011;8384;47.996;7.786;2022-09-25T06:33:29;47.03;;;27.33;;
16543;SDS011;8384;47.996;7.786;2022-09-25T06:35:58;49.93;;;27.27;;
16543;SDS011;8384;47.996;7.786;2022-09-25T06:38:24;41.93;;;26.43;;
16543;SDS011;8384;47.996;7.786;2022-09-25T06:40:50;46.27;;;27.27;;
16543;SDS011;8384;47.996;7.786;2022-09-25T06:43:15;46.53;;;28.03;;
16543;SDS011;8384;47.996;7.786;2022-09-25T06:45:41;43.33;;;27.77;;
16543;SDS011;8384;47.996;7.786;2022-09-25T06:48:08;44.40;;;26.00;;
16543;SDS011;8384;47.996;7.786;2022-09-25T06:50:41;44.70;;;26.53;;
16543;SDS011;8384;47.996;7.786;2022-09-25T06:53:12;41.93;;;25.60;;
16543;SDS011;8384;47.996;7.786;2022-09-25T06:55:38;41.37;;;24.60;;
16543;SDS011;8384;47.996;7.786;2022-09-25T06:58:05;38.83;;;24.63;;
16543;SDS011;8384;47.996;7.786;2022-09-25T07:00:32;42.73;;;26.60;;
16543;SDS011;8384;47.996;7.786;2022-09-25T07:02:59;40.57;;;24.23;;
16543;SDS011;8384;47.996;7.786;2022-09-25T07:05:43;35.33;;;23.87;;
16543;SDS011;8384;47.996;7.786;2022-09-25T07:08:12;36.50;;;23.77;;
16543;SDS011;8384;47.996;7.786;2022-09-25T07:11:03;36.93;;;24.07;;
16543;SDS011;8384;47.996;7.786;2022-09-25T07:13:29;30.13;;;21.13;;
16543;SDS011;8384;47.996;7.786;2022-09-25T07:15:56;31.60;;;21.77;;
16543;SDS011;8384;47.996;7.786;2022-09-25T07:18:24;30.60;;;22.67;;
16543;SDS011;8384;47.996;7.786;2022-09-25T07:20:50;32.07;;;22.60;;
16543;SDS011;8384;47.996;7.786;2022-09-25T07:23:17;28.97;;;21.90;;
16543;SDS011;8384;47.996;7.786;2022-09-25T07:25:44;29.80;;;21.80;;
16543;SDS011;8384;47.996;7.786;2022-09-25T07:28:11;32.50;;;22.37;;
16543;SDS011;8384;47.996;7.786;2022-09-25T07:30:38;27.50;;;20.73;;
16543;SDS011;8384;47.996;7.786;2022-09-25T07:33:04;27.07;;;20.27;;
16543;SDS011;8384;47.996;7.786;2022-09-25T07:35:30;25.17;;;19.47;;
16543;SDS011;8384;47.996;7.786;2022-09-25T07:37:56;23.23;;;18.20;;
16543;SDS011;8384;47.996;7.786;2022-09-25T07:40:22;22.17;;;18.63;;
16543;SDS011;8384;47.996;7.786;2022-09-25T07:42:48;21.00;;;17.63;;
16543;SDS011;8384;47.996;7.786;2022-09-25T07:45:13;18.40;;;16.33;;
16543;SDS011;8384;47.996;7.786;2022-09-25T07:47:39;19.20;;;16.40;;
16543;SDS011;8384;47.996;7.786;2022-09-25T07:50:07;20.57;;;16.60;;
16543;SDS011;8384;47.996;7.786;2022-09-25T07:52:33;20.17;;;17.03;;
16543;SDS011;8384;47.996;7.786;2022-09-25T07:54:58;19.90;;;17.30;;
16543;SDS011;8384;47.996;7.786;2022-09-25T07:57:24;19.87;;;17.03;;
16543;SDS011;8384;47.996;7.786;2022-09-25T07:59:49;21.03;;;17.40;;
16543;SDS011;8384;47.996;7.786;2022-09-25T08:02:15;19.30;;;16.83;;
16543;SDS011;8384;47.996;7.786;2022-09-25T08:04:42;21.60;;;17.53;;
16543;SDS011;8384;47.996;7.786;2022-09-25T08:07:08;21.33;;;18.40;;
16543;SDS011;8384;47.996;7.786;2022-09-25T08:09:33;24.43;;;18.50;;
16543;SDS011;8384;47.996;7.786;2022-09-25T08:11:59;26.50;;;20.33;;
16543;SDS011;8384;47.996;7.786;2022-09-25T08:14:27;23.40;;;18.77;;
16543;SDS011;8384;47.996;7.786;2022-09-25T08:16:53;21.23;;;18.07;;
16543;SDS011;8384;47.996;7.786;2022-09-25T08:19:19;23.27;;;17.97;;
16543;SDS011;8384;47.996;7.786;2022-09-25T08:21:47;21.40;;;17.60;;
16543;SDS011;8384;47.996;7.786;2022-09-25T08:24:13;20.53;;;16.87;;
16543;SDS011;8384;47.996;7.786;2022-09-25T08:26:38;21.20;;;17.10;;
16543;SDS011;8384;47.996;7.786;2022-09-25T08:29:03;20.70;;;16.67;;
16543;SDS011;8384;47.996;7.786;2022-09-25T08:31:28;20.27;;;17.30;;
16543;SDS011;8384;47.996;7.786;2022-09-25T08:33:54;19.33;;;16.60;;
16543;SDS011;8384;47.996;7.786;2022-09-25T08:36:20;21.93;;;16.50;;
16543;SDS011;8384;47.996;7.786;2022-09-25T08:38:46;21.20;;;16.43;;
16543;SDS011;8384;47.996;7.786;2022-09-25T08:46:32;22.43;;;17.47;;
16543;SDS011;8384;47.996;7.786;2022-09-25T08:49:18;19.87;;;15.97;;
16543;SDS011;8384;47.996;7.786;2022-09-25T08:51:46;19.47;;;15.47;;
16543;SDS011;8384;47.996;7.786;2022-09-25T08:54:21;19.07;;;15.63;;
16543;SDS011;8384;47.996;7.786;2022-09-25T08:56:49;19.37;;;15.03;;
16543;SDS011;8384;47.996;7.786;2022-09-25T08:59:32;21.33;;;16.77;;
16543;SDS011;8384;47.996;7.786;2022-09-25T09:02:11;22.67;;;15.97;;
16543;SDS011;8384;47.996;7.786;2022-09-25T09:04:47;23.27;;;16.53;;
16543;SDS011;8384;47.996;7.786;2022-09-25T09:07:23;23.33;;;16.00;;
16543;SDS011;8384;47.996;7.786;2022-09-25T09:12:38;18.37;;;14.07;;
16543;SDS011;8384;47.996;7.786;2022-09-25T09:15:19;18.10;;;13.43;;
16543;SDS011;8384;47.996;7.786;2022-09-25T09:17:52;17.40;;;13.20;;
16543;SDS011;8384;47.996;7.786;2022-09-25T09:20:25;14.90;;;12.47;;
16543;SDS011;8384;47.996;7.786;2022-09-25T09:23:10;11.90;;;10.40;;
16543;SDS011;8384;47.996;7.786;2022-09-25T09:25:49;12.53;;;10.47;;
16543;SDS011;8384;47.996;7.786;2022-09-25T09:34:00;11.17;;;9.83;;
16543;SDS011;8384;47.996;7.786;2022-09-25T09:36:57;12.20;;;10.87;;
16543;SDS011;8384;47.996;7.786;2022-09-25T09:42:26;13.40;;;11.33;;
16543;SDS011;8384;47.996;7.786;2022-09-25T09:50:36;13.93;;;10.10;;
16543;SDS011;8384;47.996;7.786;2022-09-25T09:53:50;11.80;;;10.60;;
16543;SDS011;8384;47.996;7.786;2022-09-25T09:56:11;11.03;;;9.93;;
16543;SDS011;8384;47.996;7.786;2022-09-25T09:58:54;11.70;;;9.63;;
16543;SDS011;8384;47.996;7.786;2022-09-25T10:01:23;11.33;;;9.90;;
16543;SDS011;8384;47.996;7.786;2022-09-25T10:03:56;10.83;;;9.73;;
16543;SDS011;8384;47.996;7.786;2022-09-25T10:06:29;11.50;;;9.80;;
16543;SDS011;8384;47.996;7.786;2022-09-25T10:08:58;11.80;;;10.20;;
16543;SDS011;8384;47.996;7.786;2022-09-25T10:11:23;9.87;;;8.87;;
16543;SDS011;8384;47.996;7.786;2022-09-25T10:13:50;10.40;;;9.40;;
16543;SDS011;8384;47.996;7.786;2022-09-25T10:16:17;12.70;;;10.30;;
16543;SDS011;8384;47.996;7.786;2022-09-25T10:18:53;10.67;;;8.50;;
16543;SDS011;8384;47.996;7.786;2022-09-25T10:21:27;8.93;;;8.00;;
16543;SDS011;8384;47.996;7.786;2022-09-25T10:23:55;9.80;;;8.47;;
16543;SDS011;8384;47.996;7.786;2022-09-25T10:26:31;9.00;;;8.10;;
16543;SDS011;8384;47.996;7.786;2022-09-25T10:29:03;10.77;;;8.20;;
16543;SDS011;8384;47.996;7.786;2022-09-25T10:31:32;9.23;;;8.33;;
16543;SDS011;8384;47.996;7.786;2022-09-25T10:34:01;8.47;;;7.67;;
16543;SDS011;8384;47.996;7.786;2022-09-25T10:36:37;6.53;;;5.90;;
16543;SDS011;8384;47.996;7.786;2022-09-25T10:39:18;6.30;;;5.67;;
16543;SDS011;8384;47.996;7.786;2022-09-25T10:41:58;7.17;;;6.47;;
16543;SDS011;8384;47.996;7.786;2022-09-25T10:44:31;5.90;;;5.30;;
16543;SDS011;8384;47.996;7.786;2022-09-25T10:52:55;5.63;;;4.97;;
16543;SDS011;8384;47.996;7.786;2022-09-25T10:55:40;5.77;;;5.20;;
16543;SDS011;8384;47.996;7.786;2022-09-25T10:58:18;5.20;;;4.00;;
16543;SDS011;8384;47.996;7.786;2022-09-25T11:03:20;6.00;;;5.40;;
16543;SDS011;8384;47.996;7.786;2022-09-25T11:05:49;6.97;;;5.57;;
16543;SDS011;8384;47.996;7.786;2022-09-25T11:08:19;5.70;;;5.10;;
16543;SDS011;8384;47.996;7.786;2022-09-25T11:10:50;5.53;;;5.03;;
16543;SDS011;8384;47.996;7.786;2022-09-25T11:16:09;6.20;;;5.20;;
16543;SDS011;8384;47.996;7.786;2022-09-25T11:21:24;6.77;;;4.40;;
16543;SDS011;8384;47.996;7.786;2022-09-25T11:26:36;7.23;;;5.50;;
16543;SDS011;8384;47.996;7.786;2022-09-25T11:31:46;5.83;;;5.20;;
16543;SDS011;8384;47.996;7.786;2022-09-25T11:36:53;6.40;;;5.63;;
16543;SDS011;8384;47.996;7.786;2022-09-25T11:39:45;6.87;;;5.40;;
16543;SDS011;8384;47.996;7.786;2022-09-25T11:42:44;6.30;;;5.10;;
16543;SDS011;8384;47.996;7.786;2022-09-25T11:45:19;6.77;;;5.40;;
16543;SDS011;8384;47.996;7.786;2022-09-25T11:50:24;6.00;;;5.40;;
16543;SDS011;8384;47.996;7.786;2022-09-25T11:53:42;6.50;;;5.90;;
16543;SDS011;8384;47.996;7.786;2022-09-25T11:56:05;6.30;;;5.70;;
16543;SDS011;8384;47.996;7.786;2022-09-25T12:09:01;5.73;;;5.13;;
16543;SDS011;8384;47.996;7.786;2022-09-25T12:11:50;6.17;;;5.57;;
16543;SDS011;8384;47.996;7.786;2022-09-25T12:14:33;5.83;;;5.10;;
16543;SDS011;8384;47.996;7.786;2022-09-25T12:28:49;6.17;;;5.57;;
16543;SDS011;8384;47.996;7.786;2022-09-25T12:40:05;6.13;;;5.53;;
16543;SDS011;8384;47.996;7.786;2022-09-25T12:42:57;6.20;;;5.70;;
16543;SDS011;8384;47.996;7.786;2022-09-25T12:45:30;7.87;;;6.03;;
16543;SDS011;8384;47.996;7.786;2022-09-25T12:48:16;7.63;;;6.07;;
16543;SDS011;8384;47.996;7.786;2022-09-25T12:50:50;6.43;;;5.57;;
16543;SDS011;8384;47.996;7.786;2022-09-25T12:53:40;6.50;;;5.90;;
16543;SDS011;8384;47.996;7.786;2022-09-25T12:56:09;6.43;;;5.83;;
16543;SDS011;8384;47.996;7.786;2022-09-25T12:58:55;5.80;;;5.30;;
16543;SDS011;8384;47.996;7.786;2022-09-25T13:04:21;9.17;;;5.47;;
16543;SDS011;8384;47.996;7.786;2022-09-25T13:07:18;6.33;;;5.73;;
16543;SDS011;8384;47.996;7.786;2022-09-25T13:09:49;6.30;;;4.80;;
16543;SDS011;8384;47.996;7.786;2022-09-25T13:12:34;5.30;;;4.80;;
16543;SDS011;8384;47.996;7.786;2022-09-25T13:17:33;6.33;;;5.70;;
16543;SDS011;8384;47.996;7.786;2022-09-25T13:22:50;6.40;;;5.80;;
16543;SDS011;8384;47.996;7.786;2022-09-25T13:25:20;7.13;;;5.80;;
16543;SDS011;8384;47.996;7.786;2022-09-25T13:27:46;6.30;;;5.73;;
16543;SDS011;8384;47.996;7.786;2022-09-25T13:30:19;6.30;;;5.70;;
16543;SDS011;8384;47.996;7.786;2022-09-25T13:32:47;7.87;;;5.90;;
16543;SDS011;8384;47.996;7.786;2022-09-25T13:35:17;6.43;;;5.83;;
16543;SDS011;8384;47.996;7.786;2022-09-25T13:37:44;6.30;;;5.80;;
16543;SDS011;8384;47.996;7.786;2022-09-25T13:40:15;6.43;;;5.90;;
16543;SDS011;8384;47.996;7.786;2022-09-25T13:43:20;7.00;;;5.73;;
16543;SDS011;8384;47.996;7.786;2022-09-25T13:48:39;6.83;;;6.00;;
16543;SDS011;8384;47.996;7.786;2022-09-25T13:53:55;6.90;;;5.73;;
16543;SDS011;8384;47.996;7.786;2022-09-25T14:04:14;7.10;;;6.20;;
16543;SDS011;8384;47.996;7.786;2022-09-25T14:06:46;6.83;;;6.23;;
16543;SDS011;8384;47.996;7.786;2022-09-25T14:09:14;7.50;;;6.70;;
16543;SDS011;8384;47.996;7.786;2022-09-25T14:11:50;7.73;;;7.03;;
16543;SDS011;8384;47.996;7.786;2022-09-25T14:14:26;8.03;;;7.37;;
16543;SDS011;8384;47.996;7.786;2022-09-25T14:16:57;8.83;;;7.20;;
16543;SDS011;8384;47.996;7.786;2022-09-25T14:19:25;7.27;;;6.63;;
16543;SDS011;8384;47.996;7.786;2022-09-25T14:22:06;7.20;;;6.60;;
16543;SDS011;8384;47.996;7.786;2022-09-25T14:24:45;8.33;;;7.50;;
16543;SDS011;8384;47.996;7.786;2022-09-25T14:27:18;7.47;;;6.57;;
16543;SDS011;8384;47.996;7.786;2022-09-25T14:29:47;8.10;;;6.47;;
16543;SDS011;8384;47.996;7.786;2022-09-25T14:40:23;6.43;;;5.83;;
16543;SDS011;8384;47.996;7.786;2022-09-25T14:46:01;6.70;;;6.10;;
16543;SDS011;8384;47.996;7.786;2022-09-25T14:48:37;6.50;;;5.97;;
16543;SDS011;8384;47.996;7.786;2022-09-25T14:51:09;6.50;;;5.90;;
16543;SDS011;8384;47.996;7.786;2022-09-25T14:53:45;5.80;;;5.30;;
16543;SDS011;8384;47.996;7.786;2022-09-25T14:56:18;5.60;;;5.20;;
16543;SDS011;8384;47.996;7.786;2022-09-25T14:58:46;6.87;;;6.07;;
16543;SDS011;8384;47.996;7.786;2022-09-25T15:01:22;6.40;;;5.80;;
16543;SDS011;8384;47.996;7.786;2022-09-25T15:04:03;5.93;;;5.43;;
16543;SDS011;8384;47.996;7.786;2022-09-25T15:06:33;5.87;;;5.37;;
16543;SDS011;8384;47.996;7.786;2022-09-25T15:11:53;6.43;;;5.10;;
16543;SDS011;8384;47.996;7.786;2022-09-25T15:14:20;5.33;;;4.90;;
16543;SDS011;8384;47.996;7.786;2022-09-25T15:16:48;5.30;;;4.80;;
16543;SDS011;8384;47.996;7.786;2022-09-25T15:23:06;4.50;;;4.10;;
16543;SDS011;8384;47.996;7.786;2022-09-25T15:25:41;3.70;;;3.40;;
16543;SDS011;8384;47.996;7.786;2022-09-25T15:28:11;5.23;;;4.77;;
16543;SDS011;8384;47.996;7.786;2022-09-25T15:30:43;5.53;;;4.93;;
16543;SDS011;8384;47.996;7.786;2022-09-25T15:33:28;5.03;;;4.63;;
16543;SDS011;8384;47.996;7.786;2022-09-25T15:36:01;5.60;;;4.97;;
16543;SDS011;8384;47.996;7.786;2022-09-25T15:38:33;6.37;;;5.77;;
16543;SDS011;8384;47.996;7.786;2022-09-25T15:41:02;5.63;;;5.13;;
16543;SDS011;8384;47.996;7.786;2022-09-25T15:43:33;5.80;;;5.33;;
16543;SDS011;8384;47.996;7.786;2022-09-25T15:48:30;5.50;;;5.03;;
16543;SDS011;8384;47.996;7.786;2022-09-25T15:51:18;5.93;;;5.43;;
16543;SDS011;8384;47.996;7.786;2022-09-25T15:53:51;5.77;;;5.27;;
16543;SDS011;8384;47.996;7.786;2022-09-25T15:56:21;4.63;;;4.20;;
16543;SDS011;8384;47.996;7.786;2022-09-25T16:01:44;4.37;;;4.07;;
16543;SDS011;8384;47.996;7.786;2022-09-25T16:04:29;4.70;;;4.30;;
16543;SDS011;8384;47.996;7.786;2022-09-25T16:07:20;4.77;;;4.37;;
16543;SDS011;8384;47.996;7.786;2022-09-25T16:09:48;4.80;;;4.40;;
16543;SDS011;8384;47.996;7.786;2022-09-25T16:12:25;4.77;;;4.33;;
16543;SDS011;8384;47.996;7.786;2022-09-25T16:14:59;4.73;;;4.33;;
16543;SDS011;8384;47.996;7.786;2022-09-25T16:17:50;4.90;;;4.50;;
16543;SDS011;8384;47.996;7.786;2022-09-25T16:22:44;5.30;;;4.73;;
16543;SDS011;8384;47.996;7.786;2022-09-25T16:25:15;5.93;;;4.27;;
16543;SDS011;8384;47.996;7.786;2022-09-25T16:27:46;5.77;;;4.30;;
16543;SDS011;8384;47.996;7.786;2022-09-25T16:30:16;4.67;;;4.27;;
16543;SDS011;8384;47.996;7.786;2022-09-25T16:32:44;4.97;;;4.50;;
16543;SDS011;8384;47.996;7.786;2022-09-25T16:35:18;5.13;;;4.73;;
16543;SDS011;8384;47.996;7.786;2022-09-25T16:37:52;5.73;;;5.10;;
16543;SDS011;8384;47.996;7.786;2022-09-25T16:40:23;5.80;;;5.30;;
16543;SDS011;8384;47.996;7.786;2022-09-25T16:42:53;6.03;;;5.43;;
16543;SDS011;8384;47.996;7.786;2022-09-25T16:45:21;6.57;;;5.97;;
16543;SDS011;8384;47.996;7.786;2022-09-25T16:47:57;5.37;;;4.87;;
16543;SDS011;8384;47.996;7.786;2022-09-25T16:50:24;7.73;;;6.20;;
16543;SDS011;8384;47.996;7.786;2022-09-25T16:53:03;9.30;;;8.43;;
16543;SDS011;8384;47.996;7.786;2022-09-25T16:55:30;7.50;;;6.90;;
16543;SDS011;8384;47.996;7.786;2022-09-25T16:57:57;8.33;;;7.53;;
16543;SDS011;8384;47.996;7.786;2022-09-25T17:00:26;6.47;;;5.87;;
16543;SDS011;8384;47.996;7.786;2022-09-25T17:02:53;6.57;;;5.97;;
16543;SDS011;8384;47.996;7.786;2022-09-25T17:05:20;7.07;;;6.17;;
16543;SDS011;8384;47.996;7.786;2022-09-25T17:07:50;9.43;;;8.47;;
16543;SDS011;8384;47.996;7.786;2022-09-25T17:10:19;9.00;;;8.20;;
16543;SDS011;8384;47.996;7.786;2022-09-25T17:12:47;9.80;;;8.97;;
16543;SDS011;8384;47.996;7.786;2022-09-25T17:15:24;10.37;;;9.57;;
16543;SDS011;8384;47.996;7.786;2022-09-25T17:17:56;9.67;;;8.87;;
16543;SDS011;8384;47.996;7.786;2022-09-25T17:20:25;8.70;;;7.93;;
16543;SDS011;8384;47.996;7.786;2022-09-25T17:22:51;11.90;;;10.90;;
16543;SDS011;8384;47.996;7.786;2022-09-25T17:25:39;13.23;;;11.53;;
16543;SDS011;8384;47.996;7.786;2022-09-25T17:28:06;13.17;;;11.73;;
16543;SDS011;8384;47.996;7.786;2022-09-25T17:30:33;11.33;;;10.33;;
16543;SDS011;8384;47.996;7.786;2022-09-25T17:32:58;12.00;;;11.00;;
16543;SDS011;8384;47.996;7.786;2022-09-25T17:38:15;7.83;;;7.13;;
16543;SDS011;8384;47.996;7.786;2022-09-25T17:40:41;8.30;;;7.20;;
16543;SDS011;8384;47.996;7.786;2022-09-25T17:43:09;7.40;;;6.60;;